createdAt,value
2023-06-13T00:02:24.112Z,18.50
2023-06-13T00:04:53.074Z,18.40
2023-06-13T00:07:21.313Z,18.40
2023-06-13T00:09:49.393Z,18.30
2023-06-13T00:12:21.462Z,18.30
2023-06-13T00:14:51.525Z,18.20
2023-06-13T00:17:23.773Z,18.20
2023-06-13T00:19:55.617Z,18.10
2023-06-13T00:22:24.837Z,18.10
2023-06-13T00:24:52.925Z,18.00
2023-06-13T00:27:21.118Z,18.00
2023-06-13T00:29:49.215Z,17.90
2023-06-13T00:32:18.719Z,17.90
2023-06-13T00:34:47.897Z,17.90
2023-06-13T00:37:18.240Z,17.80
2023-06-13T00:39:46.365Z,17.80
2023-06-13T00:42:14.459Z,17.70
2023-06-13T00:44:42.544Z,17.70
2023-06-13T00:47:15.085Z,17.60
2023-06-13T00:49:43.962Z,17.60
2023-06-13T00:52:12.128Z,17.60
2023-06-13T00:54:41.807Z,17.60
2023-06-13T00:57:10.482Z,17.50
2023-06-13T00:59:38.604Z,17.50
2023-06-13T01:02:07.486Z,17.50
2023-06-13T01:04:37.311Z,17.50
2023-06-13T01:07:07.122Z,17.40
2023-06-13T01:09:35.736Z,17.40
2023-06-13T01:12:14.774Z,17.40
2023-06-13T01:14:50.001Z,17.30
2023-06-13T01:17:25.462Z,17.30
2023-06-13T01:19:55.452Z,17.20
2023-06-13T01:22:27.093Z,17.10
2023-06-13T01:25:09.762Z,17.10
2023-06-13T01:27:41.791Z,17.00
2023-06-13T01:30:10.908Z,17.00
2023-06-13T01:32:40.340Z,17.00
2023-06-13T01:35:09.403Z,17.00
2023-06-13T01:37:37.617Z,16.90
2023-06-13T01:40:06.312Z,16.90
2023-06-13T01:42:34.364Z,16.80
2023-06-13T01:45:04.424Z,16.80
2023-06-13T01:47:39.050Z,16.80
2023-06-13T01:50:22.549Z,16.70
2023-06-13T01:53:00.196Z,16.70
2023-06-13T01:55:32.983Z,16.60
2023-06-13T01:58:11.838Z,16.60
2023-06-13T02:00:43.201Z,16.50
2023-06-13T02:03:12.672Z,16.40
2023-06-13T02:05:40.835Z,16.40
2023-06-13T02:08:08.913Z,16.30
2023-06-13T02:10:36.939Z,16.30
2023-06-13T02:13:04.932Z,16.20
2023-06-13T02:15:32.931Z,16.20
2023-06-13T02:18:03.795Z,16.20
2023-06-13T02:20:31.948Z,16.10
2023-06-13T02:22:59.930Z,16.10
2023-06-13T02:25:27.949Z,16.00
2023-06-13T02:27:56.052Z,16.00
2023-06-13T02:30:24.124Z,15.90
2023-06-13T02:32:54.002Z,15.90
2023-06-13T02:35:25.016Z,15.90
2023-06-13T02:37:54.483Z,15.80
2023-06-13T02:40:22.820Z,15.80
2023-06-13T02:42:53.310Z,15.70
2023-06-13T02:45:21.921Z,15.70
2023-06-13T02:47:50.002Z,15.60
2023-06-13T02:50:18.297Z,15.60
2023-06-13T02:52:51.697Z,15.60
2023-06-13T02:55:21.541Z,15.60
2023-06-13T02:57:49.721Z,15.50
2023-06-13T03:00:19.129Z,15.40
2023-06-13T03:02:47.711Z,15.40
2023-06-13T03:05:17.037Z,15.30
2023-06-13T03:07:48.313Z,15.20
2023-06-13T03:10:18.078Z,15.20
2023-06-13T03:12:46.152Z,15.20
2023-06-13T03:15:14.170Z,15.10
2023-06-13T03:17:42.256Z,15.10
2023-06-13T03:20:11.040Z,15.10
2023-06-13T03:22:40.104Z,15.10
2023-06-13T03:25:09.838Z,15.10
2023-06-13T03:27:37.853Z,15.10
2023-06-13T03:30:08.992Z,15.10
2023-06-13T03:32:37.582Z,15.10
2023-06-13T03:35:06.953Z,15.10
2023-06-13T03:37:34.967Z,15.10
2023-06-13T03:40:03.213Z,15.00
2023-06-13T03:42:32.611Z,15.00
2023-06-13T03:45:01.210Z,15.00
2023-06-13T03:47:29.536Z,15.00
2023-06-13T03:49:57.769Z,15.00
2023-06-13T03:52:25.812Z,15.00
2023-06-13T03:54:53.890Z,15.00
2023-06-13T03:57:21.993Z,14.90
2023-06-13T03:59:52.548Z,14.90
2023-06-13T04:02:21.032Z,14.90
2023-06-13T04:04:49.423Z,14.90
2023-06-13T04:07:17.409Z,14.90
2023-06-13T04:09:45.538Z,14.80
2023-06-13T04:12:13.822Z,14.80
2023-06-13T04:14:41.927Z,14.70
2023-06-13T04:17:11.433Z,14.70
2023-06-13T04:19:39.455Z,14.70
2023-06-13T04:22:07.998Z,14.60
2023-06-13T04:24:36.295Z,14.60
2023-06-13T04:27:05.005Z,14.60
2023-06-13T04:29:33.330Z,14.60
2023-06-13T04:32:03.720Z,14.60
2023-06-13T04:34:34.572Z,14.60
2023-06-13T04:37:04.673Z,14.60
2023-06-13T04:39:32.730Z,14.60
2023-06-13T04:42:02.318Z,14.60
2023-06-13T04:44:30.355Z,14.60
2023-06-13T04:46:58.973Z,14.60
2023-06-13T04:49:28.380Z,14.60
2023-06-13T04:51:59.389Z,14.60
2023-06-13T04:54:27.990Z,14.60
2023-06-13T04:56:56.072Z,14.70
2023-06-13T04:59:24.090Z,14.70
2023-06-13T05:01:52.327Z,14.80
2023-06-13T05:04:20.920Z,14.80
2023-06-13T05:06:48.895Z,14.90
2023-06-13T05:09:18.743Z,14.90
2023-06-13T05:11:47.630Z,15.00
2023-06-13T05:14:15.632Z,15.00
2023-06-13T05:16:44.606Z,15.10
2023-06-13T05:19:12.995Z,15.10
2023-06-13T05:21:41.093Z,15.20
2023-06-13T05:24:11.280Z,15.30
2023-06-13T05:26:40.681Z,15.30
2023-06-13T05:29:08.995Z,15.40
2023-06-13T05:31:37.110Z,15.50
2023-06-13T05:34:05.308Z,15.50
2023-06-13T05:36:33.342Z,15.60
2023-06-13T05:39:02.580Z,15.60
2023-06-13T05:41:30.653Z,15.70
2023-06-13T05:44:00.042Z,15.80
2023-06-13T05:46:28.169Z,15.80
2023-06-13T05:48:56.249Z,15.90
2023-06-13T05:51:24.382Z,16.00
2023-06-13T05:53:52.613Z,16.00
2023-06-13T05:56:20.625Z,16.10
2023-06-13T05:58:48.651Z,16.20
2023-06-13T06:01:20.612Z,16.20
2023-06-13T06:03:48.760Z,16.30
2023-06-13T06:06:16.928Z,16.40
2023-06-13T06:08:44.963Z,16.50
2023-06-13T06:11:12.959Z,16.60
2023-06-13T06:13:40.984Z,16.60
2023-06-13T06:16:09.077Z,16.70
2023-06-13T06:18:38.497Z,16.70
2023-06-13T06:21:07.921Z,16.70
2023-06-13T06:23:37.271Z,16.70
2023-06-13T06:26:05.349Z,16.80
2023-06-13T06:28:33.361Z,16.90
2023-06-13T06:31:02.075Z,17.00
2023-06-13T06:33:30.271Z,17.00
2023-06-13T06:35:59.777Z,17.10
2023-06-13T06:38:27.812Z,17.20
2023-06-13T06:40:55.829Z,17.30
2023-06-13T06:43:23.913Z,17.30
2023-06-13T06:45:52.166Z,17.40
2023-06-13T06:48:20.277Z,17.50
2023-06-13T06:50:48.294Z,17.60
2023-06-13T06:53:17.707Z,17.70
2023-06-13T06:55:45.786Z,17.70
2023-06-13T06:58:13.805Z,17.90
2023-06-13T07:00:42.265Z,18.00
2023-06-13T07:03:10.787Z,18.10
2023-06-13T07:05:38.982Z,18.20
2023-06-13T07:08:07.223Z,18.30
2023-06-13T07:10:36.860Z,18.30
2023-06-13T07:13:04.855Z,18.50
2023-06-13T07:15:32.856Z,18.60
2023-06-13T07:18:00.906Z,18.70
2023-06-13T07:20:28.996Z,18.80
2023-06-13T07:22:56.999Z,18.90
2023-06-13T07:25:25.057Z,18.90
2023-06-13T07:27:54.556Z,19.00
2023-06-13T07:30:22.601Z,19.10
2023-06-13T07:32:51.479Z,19.20
2023-06-13T07:35:24.675Z,19.20
2023-06-13T07:37:53.796Z,19.40
2023-06-13T07:40:22.649Z,19.50
2023-06-13T07:42:56.234Z,19.60
2023-06-13T07:45:27.519Z,19.70
2023-06-13T07:47:56.019Z,19.80
2023-06-13T07:50:24.440Z,19.80
2023-06-13T07:52:53.576Z,19.90
2023-06-13T07:55:22.920Z,19.90
2023-06-13T07:57:59.946Z,20.00
2023-06-13T08:00:30.170Z,20.10
2023-06-13T08:02:59.281Z,20.10
2023-06-13T08:05:28.407Z,20.20
2023-06-13T08:07:58.044Z,20.30
2023-06-13T08:10:28.833Z,20.30
2023-06-13T08:12:57.220Z,20.40
2023-06-13T08:15:25.705Z,20.50
2023-06-13T08:17:56.033Z,20.60
2023-06-13T08:20:24.307Z,20.70
2023-06-13T08:22:52.495Z,20.80
2023-06-13T08:25:20.637Z,20.90
2023-06-13T08:27:50.417Z,21.00
2023-06-13T08:30:19.106Z,21.00
2023-06-13T08:32:48.250Z,21.10
2023-06-13T08:35:17.986Z,21.00
2023-06-13T08:37:46.291Z,21.10
2023-06-13T08:40:17.213Z,21.10
2023-06-13T08:42:46.511Z,21.30
2023-06-13T08:45:15.417Z,21.30
2023-06-13T08:47:48.207Z,21.40
2023-06-13T08:50:25.812Z,21.50
2023-06-13T08:52:56.071Z,21.60
2023-06-13T08:57:57.500Z,21.80
2023-06-13T09:00:26.156Z,21.80
2023-06-13T09:02:57.200Z,21.80
2023-06-13T09:05:27.158Z,21.80
2023-06-13T09:08:12.440Z,21.80
2023-06-13T09:10:47.165Z,21.90
2023-06-13T09:13:17.134Z,22.10
2023-06-13T09:15:45.880Z,22.20
2023-06-13T09:18:14.231Z,22.30
2023-06-13T09:20:43.799Z,22.30
2023-06-13T09:23:15.674Z,22.50
2023-06-13T09:25:46.606Z,22.50
2023-06-13T09:28:34.802Z,22.60
2023-06-13T09:31:02.865Z,22.50
2023-06-13T09:33:31.373Z,22.70
2023-06-13T09:36:03.042Z,22.70
2023-06-13T09:38:36.677Z,22.70
2023-06-13T09:41:06.084Z,22.80
2023-06-13T09:43:34.319Z,22.90
2023-06-13T09:46:02.701Z,23.10
2023-06-13T09:48:33.056Z,23.10
2023-06-13T09:51:05.758Z,23.20
2023-06-13T09:53:34.070Z,23.30
2023-06-13T09:58:33.449Z,23.50
2023-06-13T10:01:04.337Z,23.50
2023-06-13T10:03:33.137Z,23.60
2023-06-13T10:06:03.125Z,23.60
2023-06-13T10:08:35.336Z,23.60
2023-06-13T10:11:09.111Z,23.70
2023-06-13T10:13:46.404Z,23.80
2023-06-13T10:16:17.420Z,23.90
2023-06-13T10:18:50.537Z,24.00
2023-06-13T10:21:23.068Z,24.10
2023-06-13T10:23:56.535Z,24.00
2023-06-13T10:26:34.298Z,24.10
2023-06-13T10:29:41.468Z,24.20
2023-06-13T10:32:23.567Z,24.20
2023-06-13T10:35:15.104Z,24.30
2023-06-13T10:38:24.594Z,24.40
2023-06-13T10:41:25.308Z,24.50
2023-06-13T10:44:02.660Z,24.50
2023-06-13T10:46:32.288Z,24.60
2023-06-13T10:49:02.098Z,24.60
2023-06-13T10:51:33.530Z,24.60
2023-06-13T10:54:16.061Z,24.60
2023-06-13T10:56:46.486Z,24.50
2023-06-13T10:59:19.884Z,24.50
2023-06-13T11:01:49.085Z,24.60
2023-06-13T11:04:22.866Z,24.60
2023-06-13T11:06:54.390Z,24.80
2023-06-13T11:09:26.861Z,24.70
2023-06-13T11:11:57.134Z,24.70
2023-06-13T11:14:28.450Z,24.70
2023-06-13T11:16:59.317Z,24.70
2023-06-13T11:19:29.345Z,24.80
2023-06-13T11:22:13.853Z,24.90
2023-06-13T11:24:44.987Z,25.00
2023-06-13T11:27:19.238Z,25.10
2023-06-13T11:29:48.356Z,25.20
2023-06-13T11:32:18.842Z,25.30
2023-06-13T11:34:52.048Z,25.30
2023-06-13T11:37:31.407Z,25.40
2023-06-13T11:40:19.035Z,25.40
2023-06-13T11:42:48.852Z,25.40
2023-06-13T11:45:26.900Z,25.40
2023-06-13T11:48:00.563Z,25.40
2023-06-13T11:50:30.161Z,25.50
2023-06-13T11:53:06.128Z,25.60
2023-06-13T11:55:37.777Z,25.60
2023-06-13T11:58:09.055Z,25.60
2023-06-13T12:00:51.206Z,25.60
2023-06-13T12:03:24.915Z,25.50
2023-06-13T12:05:59.443Z,25.60
2023-06-13T12:08:28.477Z,25.70
2023-06-13T12:10:59.599Z,25.80
2023-06-13T12:13:30.304Z,25.80
2023-06-13T12:16:00.188Z,25.90
2023-06-13T12:18:30.897Z,25.80
2023-06-13T12:21:01.199Z,25.80
2023-06-13T12:23:32.295Z,25.90
2023-06-13T12:26:05.285Z,26.00
2023-06-13T12:28:39.114Z,26.00
2023-06-13T12:31:12.908Z,26.10
2023-06-13T12:33:43.332Z,26.10
2023-06-13T12:36:13.393Z,26.10
2023-06-13T12:38:45.982Z,26.10
2023-06-13T12:41:17.535Z,26.00
2023-06-13T12:43:49.414Z,25.90
2023-06-13T12:46:18.819Z,25.80
2023-06-13T12:48:51.467Z,25.90
2023-06-13T12:51:29.997Z,25.90
2023-06-13T12:54:15.202Z,25.90
2023-06-13T12:56:59.999Z,25.90
2023-06-13T12:59:37.649Z,26.00
2023-06-13T13:02:11.825Z,26.00
2023-06-13T13:04:43.176Z,26.10
2023-06-13T13:07:15.496Z,26.20
2023-06-13T13:09:46.898Z,26.00
2023-06-13T13:12:20.339Z,25.90
2023-06-13T13:14:49.576Z,25.90
2023-06-13T13:17:19.043Z,26.00
2023-06-13T13:19:54.581Z,26.00
2023-06-13T13:22:24.081Z,26.10
2023-06-13T13:24:53.195Z,26.20
2023-06-13T13:27:24.636Z,26.30
2023-06-13T13:29:53.619Z,26.20
2023-06-13T13:32:25.497Z,26.20
2023-06-13T13:34:54.850Z,26.30
2023-06-13T13:37:26.002Z,26.20
2023-06-13T13:39:55.259Z,26.20
2023-06-13T13:42:28.202Z,26.20
2023-06-13T13:45:00.303Z,26.20
2023-06-13T13:47:29.544Z,26.10
2023-06-13T13:49:59.743Z,26.10
2023-06-13T13:52:29.713Z,26.10
2023-06-13T13:54:58.908Z,26.10
2023-06-13T13:57:29.706Z,26.10
2023-06-13T13:59:59.609Z,26.10
2023-06-13T14:02:29.277Z,26.20
2023-06-13T14:04:58.365Z,26.10
2023-06-13T14:07:27.458Z,26.10
2023-06-13T14:10:01.982Z,26.00
2023-06-13T14:12:32.593Z,25.90
2023-06-13T14:15:01.985Z,25.70
2023-06-13T14:17:31.436Z,25.60
2023-06-13T14:20:00.922Z,25.60
2023-06-13T14:22:30.508Z,25.50
2023-06-13T14:24:59.841Z,25.40
2023-06-13T14:27:32.645Z,25.30
2023-06-13T14:30:15.898Z,25.30
2023-06-13T14:32:47.268Z,25.30
2023-06-13T14:35:17.693Z,25.40
2023-06-13T14:37:49.621Z,25.30
2023-06-13T14:40:23.798Z,25.30
2023-06-13T14:42:55.822Z,25.20
2023-06-13T14:45:27.366Z,25.20
2023-06-13T14:47:56.842Z,25.10
2023-06-13T14:50:28.158Z,25.00
2023-06-13T14:52:58.899Z,25.00
2023-06-13T14:55:30.443Z,24.90
2023-06-13T14:57:59.873Z,24.80
2023-06-13T15:00:30.623Z,24.90
2023-06-13T15:03:00.413Z,24.90
2023-06-13T15:05:32.271Z,24.90
2023-06-13T15:08:01.758Z,24.90
2023-06-13T15:10:33.630Z,24.90
2023-06-13T15:13:03.325Z,24.80
2023-06-13T15:15:35.549Z,24.90
2023-06-13T15:18:05.232Z,24.90
2023-06-13T15:20:35.779Z,24.80
2023-06-13T15:23:05.035Z,24.70
2023-06-13T15:25:34.540Z,24.60
2023-06-13T15:28:04.047Z,24.60
2023-06-13T15:30:35.088Z,24.70
2023-06-13T15:33:05.132Z,24.70
2023-06-13T15:35:34.379Z,24.80
2023-06-13T15:38:03.398Z,24.80
2023-06-13T15:40:35.663Z,24.80
2023-06-13T15:43:04.621Z,24.80
2023-06-13T15:45:35.817Z,24.70
2023-06-13T15:48:10.376Z,24.60
2023-06-13T15:50:39.841Z,24.60
2023-06-13T15:53:10.163Z,24.60
2023-06-13T15:55:40.999Z,24.50
2023-06-13T15:58:11.629Z,24.40
2023-06-13T16:00:43.207Z,24.50
2023-06-13T16:03:12.544Z,24.50
2023-06-13T16:05:42.426Z,24.40
2023-06-13T16:08:12.001Z,24.40
2023-06-13T16:10:41.056Z,24.30
2023-06-13T16:13:10.477Z,24.20
2023-06-13T16:15:40.930Z,24.20
2023-06-13T16:18:13.243Z,24.10
2023-06-13T16:20:43.842Z,24.20
2023-06-13T16:23:12.921Z,24.20
2023-06-13T16:25:45.056Z,24.20
2023-06-13T16:28:21.153Z,24.30
2023-06-13T16:30:52.984Z,24.30
2023-06-13T16:33:23.569Z,24.20
2023-06-13T16:35:55.295Z,24.20
2023-06-13T16:38:25.909Z,24.20
2023-06-13T16:40:58.187Z,24.10
2023-06-13T16:43:27.079Z,24.00
2023-06-13T16:45:57.961Z,24.10
2023-06-13T16:48:29.259Z,24.10
2023-06-13T16:51:00.856Z,24.10
2023-06-13T16:53:30.328Z,23.90
2023-06-13T16:55:59.410Z,23.80
2023-06-13T16:58:30.785Z,23.70
2023-06-13T17:01:01.618Z,23.60
2023-06-13T17:03:30.953Z,23.60
2023-06-13T17:06:01.745Z,23.50
2023-06-13T17:08:34.417Z,23.50
2023-06-13T17:11:03.830Z,23.50
2023-06-13T17:13:33.537Z,23.40
2023-06-13T17:16:04.303Z,23.50
2023-06-13T17:18:34.408Z,23.50
2023-06-13T17:21:03.712Z,23.50
2023-06-13T17:23:33.174Z,23.50
2023-06-13T17:26:02.607Z,23.50
2023-06-13T17:28:32.321Z,23.40
2023-06-13T17:31:02.837Z,23.20
2023-06-13T17:33:49.760Z,23.10
2023-06-13T17:36:20.492Z,23.00
2023-06-13T17:38:50.114Z,23.00
2023-06-13T17:41:19.820Z,23.00
2023-06-13T17:43:48.998Z,23.00
2023-06-13T17:46:19.725Z,23.00
2023-06-13T17:48:48.896Z,22.80
2023-06-13T17:51:20.711Z,22.70
2023-06-13T17:53:51.873Z,22.60
2023-06-13T17:56:22.034Z,22.60
2023-06-13T17:58:51.891Z,22.60
2023-06-13T18:01:22.710Z,22.60
2023-06-13T18:03:52.271Z,22.50
2023-06-13T18:06:22.424Z,22.40
2023-06-13T18:08:52.039Z,22.50
2023-06-13T18:11:21.363Z,22.50
2023-06-13T18:13:50.754Z,22.40
2023-06-13T18:16:20.790Z,22.50
2023-06-13T18:18:51.700Z,22.50
2023-06-13T18:21:20.895Z,22.30
2023-06-13T18:23:49.891Z,22.30
2023-06-13T18:26:19.412Z,22.20
2023-06-13T18:28:49.097Z,22.20
2023-06-13T18:31:19.542Z,22.10
2023-06-13T18:33:48.828Z,22.10
2023-06-13T18:36:19.682Z,22.00
2023-06-13T18:38:51.544Z,22.00
2023-06-13T18:41:21.664Z,22.00
2023-06-13T18:43:52.519Z,21.90
2023-06-13T18:46:21.722Z,21.80
2023-06-13T18:48:51.029Z,21.80
2023-06-13T18:51:22.722Z,21.50
2023-06-13T18:53:54.616Z,21.40
2023-06-13T18:56:27.158Z,21.30
2023-06-13T18:58:58.372Z,21.20
2023-06-13T19:01:30.313Z,21.10
2023-06-13T19:04:00.003Z,21.00
2023-06-13T19:06:30.505Z,20.90
2023-06-13T19:08:59.977Z,20.80
2023-06-13T19:11:30.879Z,20.70
2023-06-13T19:14:02.014Z,20.50
2023-06-13T19:16:34.428Z,20.40
2023-06-13T19:19:06.354Z,20.40
2023-06-13T19:21:37.293Z,20.40
2023-06-13T19:24:10.723Z,20.30
2023-06-13T19:26:41.325Z,20.30
2023-06-13T19:29:11.642Z,20.30
2023-06-13T19:31:42.056Z,20.20
2023-06-13T19:34:11.568Z,20.20
2023-06-13T19:36:44.446Z,20.10
2023-06-13T19:39:14.048Z,20.00
2023-06-13T19:41:44.287Z,19.90
2023-06-13T19:44:13.626Z,19.90
2023-06-13T19:46:42.671Z,19.80
2023-06-13T19:49:12.558Z,19.80
2023-06-13T19:51:43.311Z,19.70
2023-06-13T19:54:13.339Z,19.70
2023-06-13T19:56:43.061Z,19.60
2023-06-13T19:59:15.126Z,19.50
2023-06-13T20:01:45.360Z,19.40
2023-06-13T20:04:15.073Z,19.40
2023-06-13T20:06:46.122Z,19.30
2023-06-13T20:09:15.607Z,19.30
2023-06-13T20:11:44.996Z,19.20
2023-06-13T20:14:14.539Z,19.20
2023-06-13T20:16:46.346Z,19.20
2023-06-13T20:19:15.461Z,19.20
2023-06-13T20:21:48.536Z,19.30
2023-06-13T20:24:18.383Z,19.20
2023-06-13T20:26:47.690Z,19.20
2023-06-13T20:29:17.016Z,19.20
2023-06-13T20:31:46.400Z,19.10
2023-06-13T20:34:17.623Z,19.10
2023-06-13T20:36:48.567Z,19.10
2023-06-13T20:39:17.884Z,19.00
2023-06-13T20:41:49.599Z,19.00
2023-06-13T20:44:19.318Z,18.80
2023-06-13T20:46:50.890Z,18.70
2023-06-13T20:49:21.184Z,18.70
2023-06-13T20:51:57.496Z,18.70
2023-06-13T20:54:28.895Z,18.70
2023-06-13T20:56:58.300Z,18.80
2023-06-13T20:59:31.692Z,18.80
2023-06-13T21:02:01.073Z,18.80
2023-06-13T21:04:32.710Z,18.80
2023-06-13T21:07:05.988Z,18.70
2023-06-13T21:09:37.858Z,18.60
2023-06-13T21:12:09.099Z,18.50
2023-06-13T21:14:40.794Z,18.50
2023-06-13T21:17:13.547Z,18.40
2023-06-13T21:19:44.494Z,18.40
2023-06-13T21:22:15.965Z,18.30
2023-06-13T21:24:44.496Z,18.30
2023-06-13T21:27:13.144Z,18.20
2023-06-13T21:29:43.619Z,18.10
2023-06-13T21:32:12.175Z,17.90
2023-06-13T21:34:42.431Z,17.90
2023-06-13T21:37:12.848Z,17.80
2023-06-13T21:39:43.209Z,17.70
2023-06-13T21:42:12.459Z,17.60
2023-06-13T21:44:41.096Z,17.60
2023-06-13T21:47:09.739Z,17.60
2023-06-13T21:49:38.707Z,17.60
2023-06-13T21:52:08.098Z,17.60
2023-06-13T21:54:37.304Z,17.60
2023-06-13T21:57:08.886Z,17.50
2023-06-13T21:59:39.928Z,17.50
2023-06-13T22:02:08.557Z,17.50
2023-06-13T22:04:37.431Z,17.40
2023-06-13T22:07:07.850Z,17.40
2023-06-13T22:09:36.722Z,17.40
2023-06-13T22:12:08.786Z,17.30
2023-06-13T22:14:37.573Z,17.30
2023-06-13T22:17:06.531Z,17.30
2023-06-13T22:19:35.177Z,17.30
2023-06-13T22:22:04.119Z,17.30
2023-06-13T22:24:32.985Z,17.20
2023-06-13T22:27:03.978Z,17.20
2023-06-13T22:29:35.229Z,17.20
2023-06-13T22:32:03.929Z,17.10
2023-06-13T22:34:34.273Z,17.20
2023-06-13T22:37:05.168Z,17.20
2023-06-13T22:39:33.783Z,17.10
2023-06-13T22:42:02.539Z,17.10
2023-06-13T22:44:31.272Z,17.10
2023-06-13T22:47:01.652Z,17.10
2023-06-13T22:49:30.558Z,17.10
2023-06-13T22:51:59.338Z,17.10
2023-06-13T22:54:30.827Z,17.10
2023-06-13T22:56:59.664Z,17.00
2023-06-13T22:59:28.546Z,17.00
2023-06-13T23:02:00.055Z,17.00
2023-06-13T23:04:35.300Z,17.00
2023-06-13T23:07:04.507Z,17.00
2023-06-13T23:09:33.362Z,17.00
2023-06-13T23:12:03.186Z,17.00
2023-06-13T23:14:32.307Z,16.90
2023-06-13T23:17:03.603Z,16.90
2023-06-13T23:19:33.731Z,16.90
2023-06-13T23:22:02.434Z,16.90
2023-06-13T23:24:32.142Z,16.90
2023-06-13T23:27:03.648Z,16.90
2023-06-13T23:29:40.253Z,16.90
2023-06-13T23:32:10.190Z,16.80
2023-06-13T23:34:41.965Z,16.80
2023-06-13T23:37:12.058Z,16.80
2023-06-13T23:39:42.763Z,16.80
2023-06-13T23:42:12.524Z,16.70
2023-06-13T23:44:41.791Z,16.70
2023-06-13T23:47:10.540Z,16.70
2023-06-13T23:49:42.442Z,16.60
2023-06-13T23:52:11.274Z,16.60
2023-06-13T23:54:40.159Z,16.60
2023-06-13T23:57:11.495Z,16.50
2023-06-13T23:59:42.552Z,16.50
